sensor_id;sensor_type;location;lat;lon;timestamp;P1;durP1;ratioP1;P2;durP2;ratioP2
41705;SDS011;27385;51.096;17.190;2022-07-19T00:01:33;17.50;;;4.30;;
41705;SDS011;27385;51.096;17.190;2022-07-19T00:04:04;12.30;;;3.60;;
41705;SDS011;27385;51.096;17.190;2022-07-19T00:06:35;18.00;;;3.70;;
41705;SDS011;27385;51.096;17.190;2022-07-19T00:09:07;10.10;;;2.50;;
41705;SDS011;27385;51.096;17.190;2022-07-19T00:11:38;14.40;;;4.00;;
41705;SDS011;27385;51.096;17.190;2022-07-19T00:14:09;14.30;;;3.50;;
41705;SDS011;27385;51.096;17.190;2022-07-19T00:16:41;10.60;;;2.70;;
41705;SDS011;27385;51.096;17.190;2022-07-19T00:19:12;11.90;;;2.90;;
41705;SDS011;27385;51.096;17.190;2022-07-19T00:21:44;13.90;;;3.60;;
41705;SDS011;27385;51.096;17.190;2022-07-19T00:24:15;14.30;;;3.20;;
41705;SDS011;27385;51.096;17.190;2022-07-19T00:26:47;17.00;;;3.30;;
41705;SDS011;27385;51.096;17.190;2022-07-19T00:29:18;13.20;;;2.50;;
41705;SDS011;27385;51.096;17.190;2022-07-19T00:31:50;20.50;;;3.20;;
41705;SDS011;27385;51.096;17.190;2022-07-19T00:34:21;12.50;;;2.90;;
41705;SDS011;27385;51.096;17.190;2022-07-19T00:36:52;15.10;;;3.00;;
41705;SDS011;27385;51.096;17.190;2022-07-19T00:39:23;17.10;;;3.30;;
41705;SDS011;27385;51.096;17.190;2022-07-19T00:41:56;12.10;;;3.20;;
41705;SDS011;27385;51.096;17.190;2022-07-19T00:44:27;12.10;;;3.10;;
41705;SDS011;27385;51.096;17.190;2022-07-19T00:46:59;11.50;;;2.70;;
41705;SDS011;27385;51.096;17.190;2022-07-19T00:49:31;14.80;;;3.60;;
41705;SDS011;27385;51.096;17.190;2022-07-19T00:52:03;12.90;;;2.30;;
41705;SDS011;27385;51.096;17.190;2022-07-19T00:54:36;9.40;;;2.40;;
41705;SDS011;27385;51.096;17.190;2022-07-19T00:57:10;10.40;;;2.60;;
41705;SDS011;27385;51.096;17.190;2022-07-19T00:59:44;12.20;;;2.90;;
41705;SDS011;27385;51.096;17.190;2022-07-19T01:02:18;19.30;;;3.10;;
41705;SDS011;27385;51.096;17.190;2022-07-19T01:04:50;14.00;;;3.00;;
41705;SDS011;27385;51.096;17.190;2022-07-19T01:07:21;14.10;;;2.80;;
41705;SDS011;27385;51.096;17.190;2022-07-19T01:09:52;14.20;;;2.80;;
41705;SDS011;27385;51.096;17.190;2022-07-19T01:12:24;15.00;;;3.10;;
41705;SDS011;27385;51.096;17.190;2022-07-19T01:14:56;11.10;;;2.70;;
41705;SDS011;27385;51.096;17.190;2022-07-19T01:17:28;12.20;;;3.40;;
41705;SDS011;27385;51.096;17.190;2022-07-19T01:19:59;11.50;;;3.30;;
41705;SDS011;27385;51.096;17.190;2022-07-19T01:22:31;13.70;;;3.80;;
41705;SDS011;27385;51.096;17.190;2022-07-19T01:25:03;12.20;;;3.10;;
41705;SDS011;27385;51.096;17.190;2022-07-19T01:27:39;15.10;;;3.30;;
41705;SDS011;27385;51.096;17.190;2022-07-19T01:30:12;14.50;;;3.40;;
41705;SDS011;27385;51.096;17.190;2022-07-19T01:32:45;12.60;;;3.10;;
41705;SDS011;27385;51.096;17.190;2022-07-19T01:35:23;11.60;;;3.10;;
41705;SDS011;27385;51.096;17.190;2022-07-19T01:37:54;14.50;;;3.30;;
41705;SDS011;27385;51.096;17.190;2022-07-19T01:40:26;12.30;;;2.60;;
41705;SDS011;27385;51.096;17.190;2022-07-19T01:42:58;10.70;;;2.80;;
41705;SDS011;27385;51.096;17.190;2022-07-19T01:45:30;10.20;;;2.30;;
41705;SDS011;27385;51.096;17.190;2022-07-19T01:48:02;11.40;;;3.10;;
41705;SDS011;27385;51.096;17.190;2022-07-19T01:50:34;7.80;;;2.30;;
41705;SDS011;27385;51.096;17.190;2022-07-19T01:53:05;11.60;;;2.90;;
41705;SDS011;27385;51.096;17.190;2022-07-19T01:55:37;12.30;;;2.30;;
41705;SDS011;27385;51.096;17.190;2022-07-19T01:58:13;11.80;;;2.50;;
41705;SDS011;27385;51.096;17.190;2022-07-19T02:00:44;15.00;;;3.40;;
41705;SDS011;27385;51.096;17.190;2022-07-19T02:03:15;11.70;;;3.20;;
41705;SDS011;27385;51.096;17.190;2022-07-19T02:05:47;12.50;;;2.80;;
41705;SDS011;27385;51.096;17.190;2022-07-19T02:08:18;13.30;;;3.80;;
41705;SDS011;27385;51.096;17.190;2022-07-19T02:10:50;18.00;;;3.90;;
41705;SDS011;27385;51.096;17.190;2022-07-19T02:13:21;13.20;;;3.30;;
41705;SDS011;27385;51.096;17.190;2022-07-19T02:15:53;15.00;;;3.50;;
41705;SDS011;27385;51.096;17.190;2022-07-19T02:18:24;18.00;;;3.90;;
41705;SDS011;27385;51.096;17.190;2022-07-19T02:20:57;11.90;;;3.60;;
41705;SDS011;27385;51.096;17.190;2022-07-19T02:23:29;15.20;;;3.60;;
41705;SDS011;27385;51.096;17.190;2022-07-19T02:26:01;14.90;;;4.80;;
41705;SDS011;27385;51.096;17.190;2022-07-19T02:28:33;15.90;;;4.70;;
41705;SDS011;27385;51.096;17.190;2022-07-19T02:31:05;12.00;;;3.80;;
41705;SDS011;27385;51.096;17.190;2022-07-19T02:33:36;14.40;;;3.60;;
41705;SDS011;27385;51.096;17.190;2022-07-19T02:36:08;10.50;;;3.40;;
41705;SDS011;27385;51.096;17.190;2022-07-19T02:38:39;12.40;;;3.60;;
41705;SDS011;27385;51.096;17.190;2022-07-19T02:41:11;14.10;;;3.80;;
41705;SDS011;27385;51.096;17.190;2022-07-19T02:43:43;15.60;;;4.60;;
41705;SDS011;27385;51.096;17.190;2022-07-19T02:46:17;14.80;;;5.10;;
41705;SDS011;27385;51.096;17.190;2022-07-19T02:48:49;16.20;;;4.00;;
41705;SDS011;27385;51.096;17.190;2022-07-19T02:51:20;17.00;;;3.80;;
41705;SDS011;27385;51.096;17.190;2022-07-19T02:53:52;12.60;;;3.40;;
41705;SDS011;27385;51.096;17.190;2022-07-19T02:56:24;19.00;;;3.90;;
41705;SDS011;27385;51.096;17.190;2022-07-19T02:58:56;15.80;;;3.60;;
41705;SDS011;27385;51.096;17.190;2022-07-19T03:01:27;14.80;;;2.80;;
41705;SDS011;27385;51.096;17.190;2022-07-19T03:03:58;16.00;;;3.40;;
41705;SDS011;27385;51.096;17.190;2022-07-19T03:06:29;14.00;;;2.60;;
41705;SDS011;27385;51.096;17.190;2022-07-19T03:09:01;12.00;;;2.40;;
41705;SDS011;27385;51.096;17.190;2022-07-19T03:11:32;15.10;;;3.00;;
41705;SDS011;27385;51.096;17.190;2022-07-19T03:14:04;14.70;;;3.40;;
41705;SDS011;27385;51.096;17.190;2022-07-19T03:16:35;19.30;;;2.90;;
41705;SDS011;27385;51.096;17.190;2022-07-19T03:19:06;15.90;;;3.70;;
41705;SDS011;27385;51.096;17.190;2022-07-19T03:21:38;13.30;;;2.80;;
41705;SDS011;27385;51.096;17.190;2022-07-19T03:24:09;15.90;;;3.30;;
41705;SDS011;27385;51.096;17.190;2022-07-19T03:26:41;20.20;;;3.50;;
41705;SDS011;27385;51.096;17.190;2022-07-19T03:29:12;18.30;;;2.40;;
41705;SDS011;27385;51.096;17.190;2022-07-19T03:31:44;15.20;;;3.00;;
41705;SDS011;27385;51.096;17.190;2022-07-19T03:34:15;16.10;;;2.90;;
41705;SDS011;27385;51.096;17.190;2022-07-19T03:36:47;12.70;;;3.00;;
41705;SDS011;27385;51.096;17.190;2022-07-19T03:39:19;16.90;;;3.50;;
41705;SDS011;27385;51.096;17.190;2022-07-19T03:41:50;13.20;;;2.40;;
41705;SDS011;27385;51.096;17.190;2022-07-19T03:44:22;15.10;;;2.80;;
41705;SDS011;27385;51.096;17.190;2022-07-19T03:46:54;11.00;;;2.40;;
41705;SDS011;27385;51.096;17.190;2022-07-19T03:49:25;15.00;;;2.50;;
41705;SDS011;27385;51.096;17.190;2022-07-19T03:51:56;19.90;;;3.10;;
41705;SDS011;27385;51.096;17.190;2022-07-19T03:54:28;9.00;;;2.40;;
41705;SDS011;27385;51.096;17.190;2022-07-19T03:56:59;14.10;;;2.90;;
41705;SDS011;27385;51.096;17.190;2022-07-19T03:59:31;14.40;;;2.70;;
41705;SDS011;27385;51.096;17.190;2022-07-19T04:02:02;15.80;;;2.70;;
41705;SDS011;27385;51.096;17.190;2022-07-19T04:04:34;15.40;;;2.20;;
41705;SDS011;27385;51.096;17.190;2022-07-19T04:07:05;15.10;;;2.90;;
41705;SDS011;27385;51.096;17.190;2022-07-19T04:09:37;13.20;;;2.40;;
41705;SDS011;27385;51.096;17.190;2022-07-19T04:12:09;20.40;;;3.00;;
41705;SDS011;27385;51.096;17.190;2022-07-19T04:14:40;16.40;;;3.20;;
41705;SDS011;27385;51.096;17.190;2022-07-19T04:17:12;18.70;;;3.00;;
41705;SDS011;27385;51.096;17.190;2022-07-19T04:19:44;12.70;;;2.50;;
41705;SDS011;27385;51.096;17.190;2022-07-19T04:22:15;18.50;;;2.70;;
41705;SDS011;27385;51.096;17.190;2022-07-19T04:24:47;18.90;;;4.40;;
41705;SDS011;27385;51.096;17.190;2022-07-19T04:27:19;15.40;;;2.50;;
41705;SDS011;27385;51.096;17.190;2022-07-19T04:29:51;13.30;;;1.80;;
41705;SDS011;27385;51.096;17.190;2022-07-19T04:32:22;13.40;;;2.20;;
41705;SDS011;27385;51.096;17.190;2022-07-19T04:34:54;11.80;;;2.40;;
41705;SDS011;27385;51.096;17.190;2022-07-19T04:37:25;13.40;;;2.50;;
41705;SDS011;27385;51.096;17.190;2022-07-19T04:39:57;18.30;;;3.00;;
41705;SDS011;27385;51.096;17.190;2022-07-19T04:42:30;12.80;;;2.70;;
41705;SDS011;27385;51.096;17.190;2022-07-19T04:45:02;21.00;;;2.80;;
41705;SDS011;27385;51.096;17.190;2022-07-19T04:47:34;16.20;;;2.60;;
41705;SDS011;27385;51.096;17.190;2022-07-19T04:50:08;14.20;;;2.20;;
41705;SDS011;27385;51.096;17.190;2022-07-19T04:52:39;15.90;;;2.00;;
41705;SDS011;27385;51.096;17.190;2022-07-19T04:55:11;16.40;;;3.10;;
41705;SDS011;27385;51.096;17.190;2022-07-19T04:57:43;17.70;;;2.50;;
41705;SDS011;27385;51.096;17.190;2022-07-19T05:00:14;14.40;;;2.40;;
41705;SDS011;27385;51.096;17.190;2022-07-19T05:02:46;10.70;;;2.00;;
41705;SDS011;27385;51.096;17.190;2022-07-19T05:05:17;11.50;;;2.00;;
41705;SDS011;27385;51.096;17.190;2022-07-19T05:07:50;10.30;;;1.70;;
41705;SDS011;27385;51.096;17.190;2022-07-19T05:10:21;7.60;;;1.30;;
41705;SDS011;27385;51.096;17.190;2022-07-19T05:12:53;8.70;;;1.90;;
41705;SDS011;27385;51.096;17.190;2022-07-19T05:15:25;6.10;;;1.70;;
41705;SDS011;27385;51.096;17.190;2022-07-19T05:17:57;9.90;;;1.50;;
41705;SDS011;27385;51.096;17.190;2022-07-19T05:20:32;9.80;;;1.30;;
41705;SDS011;27385;51.096;17.190;2022-07-19T05:23:03;7.00;;;1.40;;
41705;SDS011;27385;51.096;17.190;2022-07-19T05:25:35;6.60;;;1.20;;
41705;SDS011;27385;51.096;17.190;2022-07-19T05:28:07;10.60;;;1.70;;
41705;SDS011;27385;51.096;17.190;2022-07-19T05:30:39;8.80;;;1.20;;
41705;SDS011;27385;51.096;17.190;2022-07-19T05:33:11;10.80;;;1.30;;
41705;SDS011;27385;51.096;17.190;2022-07-19T05:35:44;12.60;;;1.40;;
41705;SDS011;27385;51.096;17.190;2022-07-19T05:38:16;8.90;;;1.40;;
41705;SDS011;27385;51.096;17.190;2022-07-19T05:40:48;9.40;;;1.30;;
41705;SDS011;27385;51.096;17.190;2022-07-19T05:43:19;8.90;;;1.30;;
41705;SDS011;27385;51.096;17.190;2022-07-19T05:45:51;7.10;;;1.20;;
41705;SDS011;27385;51.096;17.190;2022-07-19T05:48:22;12.20;;;1.50;;
41705;SDS011;27385;51.096;17.190;2022-07-19T05:50:54;11.30;;;1.20;;
41705;SDS011;27385;51.096;17.190;2022-07-19T05:53:26;18.60;;;2.20;;
41705;SDS011;27385;51.096;17.190;2022-07-19T05:55:57;13.40;;;1.50;;
41705;SDS011;27385;51.096;17.190;2022-07-19T05:58:29;7.90;;;1.30;;
41705;SDS011;27385;51.096;17.190;2022-07-19T06:01:01;11.20;;;1.60;;
41705;SDS011;27385;51.096;17.190;2022-07-19T06:03:51;12.30;;;1.60;;
41705;SDS011;27385;51.096;17.190;2022-07-19T06:06:25;8.50;;;1.00;;
41705;SDS011;27385;51.096;17.190;2022-07-19T06:08:57;13.00;;;1.30;;
41705;SDS011;27385;51.096;17.190;2022-07-19T06:11:30;12.20;;;1.90;;
41705;SDS011;27385;51.096;17.190;2022-07-19T06:14:01;7.10;;;1.40;;
41705;SDS011;27385;51.096;17.190;2022-07-19T06:16:43;10.90;;;1.30;;
41705;SDS011;27385;51.096;17.190;2022-07-19T06:19:14;10.10;;;1.40;;
41705;SDS011;27385;51.096;17.190;2022-07-19T06:21:46;8.00;;;1.30;;
41705;SDS011;27385;51.096;17.190;2022-07-19T06:24:18;8.80;;;1.10;;
41705;SDS011;27385;51.096;17.190;2022-07-19T06:26:50;8.30;;;0.90;;
41705;SDS011;27385;51.096;17.190;2022-07-19T06:29:22;6.40;;;1.40;;
41705;SDS011;27385;51.096;17.190;2022-07-19T06:31:53;7.70;;;1.10;;
41705;SDS011;27385;51.096;17.190;2022-07-19T06:34:25;10.50;;;1.10;;
41705;SDS011;27385;51.096;17.190;2022-07-19T06:36:56;9.90;;;1.30;;
41705;SDS011;27385;51.096;17.190;2022-07-19T06:39:27;9.60;;;1.40;;
41705;SDS011;27385;51.096;17.190;2022-07-19T06:41:59;6.40;;;1.40;;
41705;SDS011;27385;51.096;17.190;2022-07-19T06:44:32;10.20;;;1.00;;
41705;SDS011;27385;51.096;17.190;2022-07-19T06:47:05;9.00;;;1.10;;
41705;SDS011;27385;51.096;17.190;2022-07-19T06:49:37;8.30;;;1.10;;
41705;SDS011;27385;51.096;17.190;2022-07-19T06:52:08;7.00;;;0.90;;
41705;SDS011;27385;51.096;17.190;2022-07-19T06:54:41;10.70;;;1.40;;
41705;SDS011;27385;51.096;17.190;2022-07-19T06:57:13;7.40;;;1.10;;
41705;SDS011;27385;51.096;17.190;2022-07-19T06:59:44;12.40;;;1.20;;
41705;SDS011;27385;51.096;17.190;2022-07-19T07:02:17;24.50;;;2.10;;
41705;SDS011;27385;51.096;17.190;2022-07-19T07:04:53;7.90;;;1.20;;
41705;SDS011;27385;51.096;17.190;2022-07-19T07:07:27;12.40;;;1.30;;
41705;SDS011;27385;51.096;17.190;2022-07-19T07:09:59;6.10;;;0.90;;
41705;SDS011;27385;51.096;17.190;2022-07-19T07:12:30;10.90;;;1.10;;
41705;SDS011;27385;51.096;17.190;2022-07-19T07:15:02;9.40;;;1.20;;
41705;SDS011;27385;51.096;17.190;2022-07-19T07:17:36;8.80;;;1.10;;
41705;SDS011;27385;51.096;17.190;2022-07-19T07:20:09;7.30;;;1.20;;
41705;SDS011;27385;51.096;17.190;2022-07-19T07:22:42;6.10;;;0.90;;
41705;SDS011;27385;51.096;17.190;2022-07-19T07:25:14;12.70;;;1.00;;
41705;SDS011;27385;51.096;17.190;2022-07-19T07:27:47;6.90;;;0.90;;
41705;SDS011;27385;51.096;17.190;2022-07-19T07:30:18;6.90;;;0.90;;
41705;SDS011;27385;51.096;17.190;2022-07-19T07:32:50;6.10;;;0.90;;
41705;SDS011;27385;51.096;17.190;2022-07-19T07:35:23;10.70;;;0.90;;
41705;SDS011;27385;51.096;17.190;2022-07-19T07:37:55;4.30;;;0.70;;
41705;SDS011;27385;51.096;17.190;2022-07-19T07:40:27;4.10;;;0.60;;
41705;SDS011;27385;51.096;17.190;2022-07-19T07:42:58;3.20;;;0.80;;
41705;SDS011;27385;51.096;17.190;2022-07-19T07:45:31;4.10;;;0.70;;
41705;SDS011;27385;51.096;17.190;2022-07-19T07:48:02;4.10;;;0.70;;
41705;SDS011;27385;51.096;17.190;2022-07-19T07:50:34;8.70;;;0.90;;
41705;SDS011;27385;51.096;17.190;2022-07-19T07:53:05;5.20;;;0.70;;
41705;SDS011;27385;51.096;17.190;2022-07-19T07:55:38;7.30;;;0.70;;
41705;SDS011;27385;51.096;17.190;2022-07-19T07:58:10;5.50;;;0.80;;
41705;SDS011;27385;51.096;17.190;2022-07-19T08:00:42;8.10;;;0.90;;
41705;SDS011;27385;51.096;17.190;2022-07-19T08:03:13;5.10;;;0.80;;
41705;SDS011;27385;51.096;17.190;2022-07-19T08:05:45;5.70;;;0.80;;
41705;SDS011;27385;51.096;17.190;2022-07-19T08:08:17;6.30;;;1.00;;
41705;SDS011;27385;51.096;17.190;2022-07-19T08:10:50;4.30;;;0.80;;
41705;SDS011;27385;51.096;17.190;2022-07-19T08:13:22;5.40;;;0.80;;
41705;SDS011;27385;51.096;17.190;2022-07-19T08:15:54;7.30;;;0.70;;
41705;SDS011;27385;51.096;17.190;2022-07-19T08:18:26;2.60;;;0.50;;
41705;SDS011;27385;51.096;17.190;2022-07-19T08:20:57;4.30;;;0.70;;
41705;SDS011;27385;51.096;17.190;2022-07-19T08:23:29;5.80;;;0.60;;
41705;SDS011;27385;51.096;17.190;2022-07-19T08:26:01;7.10;;;0.60;;
41705;SDS011;27385;51.096;17.190;2022-07-19T08:28:33;2.70;;;0.60;;
41705;SDS011;27385;51.096;17.190;2022-07-19T08:31:04;4.20;;;0.60;;
41705;SDS011;27385;51.096;17.190;2022-07-19T08:33:35;6.20;;;0.70;;
41705;SDS011;27385;51.096;17.190;2022-07-19T08:36:09;3.70;;;0.70;;
41705;SDS011;27385;51.096;17.190;2022-07-19T08:38:41;3.80;;;0.70;;
41705;SDS011;27385;51.096;17.190;2022-07-19T08:41:15;6.50;;;0.90;;
41705;SDS011;27385;51.096;17.190;2022-07-19T08:43:46;3.30;;;0.60;;
41705;SDS011;27385;51.096;17.190;2022-07-19T08:46:20;4.80;;;0.60;;
41705;SDS011;27385;51.096;17.190;2022-07-19T08:48:52;3.60;;;0.60;;
41705;SDS011;27385;51.096;17.190;2022-07-19T08:51:24;5.60;;;0.70;;
41705;SDS011;27385;51.096;17.190;2022-07-19T08:53:57;4.40;;;1.00;;
41705;SDS011;27385;51.096;17.190;2022-07-19T08:56:29;3.70;;;0.70;;
41705;SDS011;27385;51.096;17.190;2022-07-19T08:59:19;5.00;;;0.90;;
41705;SDS011;27385;51.096;17.190;2022-07-19T09:01:51;5.30;;;0.70;;
41705;SDS011;27385;51.096;17.190;2022-07-19T09:04:23;3.70;;;0.70;;
41705;SDS011;27385;51.096;17.190;2022-07-19T09:06:56;4.70;;;0.50;;
41705;SDS011;27385;51.096;17.190;2022-07-19T09:09:30;4.10;;;0.60;;
41705;SDS011;27385;51.096;17.190;2022-07-19T09:12:03;3.40;;;0.80;;
41705;SDS011;27385;51.096;17.190;2022-07-19T09:14:37;7.20;;;0.60;;
41705;SDS011;27385;51.096;17.190;2022-07-19T09:17:09;5.40;;;0.50;;
41705;SDS011;27385;51.096;17.190;2022-07-19T09:19:45;4.60;;;0.70;;
41705;SDS011;27385;51.096;17.190;2022-07-19T09:22:18;7.80;;;0.60;;
41705;SDS011;27385;51.096;17.190;2022-07-19T09:24:50;6.60;;;1.20;;
41705;SDS011;27385;51.096;17.190;2022-07-19T09:27:22;5.00;;;0.80;;
41705;SDS011;27385;51.096;17.190;2022-07-19T09:29:55;4.30;;;0.80;;
41705;SDS011;27385;51.096;17.190;2022-07-19T09:32:28;4.40;;;0.70;;
41705;SDS011;27385;51.096;17.190;2022-07-19T09:35:00;4.90;;;0.60;;
41705;SDS011;27385;51.096;17.190;2022-07-19T09:37:33;5.40;;;0.90;;
41705;SDS011;27385;51.096;17.190;2022-07-19T09:40:08;7.20;;;0.90;;
41705;SDS011;27385;51.096;17.190;2022-07-19T09:42:40;4.90;;;0.90;;
41705;SDS011;27385;51.096;17.190;2022-07-19T09:45:13;4.50;;;0.80;;
41705;SDS011;27385;51.096;17.190;2022-07-19T09:47:46;7.50;;;0.70;;
41705;SDS011;27385;51.096;17.190;2022-07-19T09:50:19;5.90;;;0.70;;
41705;SDS011;27385;51.096;17.190;2022-07-19T09:52:50;3.60;;;0.80;;
41705;SDS011;27385;51.096;17.190;2022-07-19T09:55:22;7.00;;;0.60;;
41705;SDS011;27385;51.096;17.190;2022-07-19T09:57:55;4.00;;;0.70;;
41705;SDS011;27385;51.096;17.190;2022-07-19T10:00:29;4.40;;;0.80;;
41705;SDS011;27385;51.096;17.190;2022-07-19T10:03:01;8.00;;;0.80;;
41705;SDS011;27385;51.096;17.190;2022-07-19T10:05:33;5.10;;;0.80;;
41705;SDS011;27385;51.096;17.190;2022-07-19T10:08:06;5.00;;;0.70;;
41705;SDS011;27385;51.096;17.190;2022-07-19T10:10:38;3.90;;;0.70;;
41705;SDS011;27385;51.096;17.190;2022-07-19T10:13:12;6.10;;;0.80;;
41705;SDS011;27385;51.096;17.190;2022-07-19T10:15:45;5.60;;;0.80;;
41705;SDS011;27385;51.096;17.190;2022-07-19T10:18:22;5.80;;;0.80;;
41705;SDS011;27385;51.096;17.190;2022-07-19T10:20:59;6.00;;;0.80;;
41705;SDS011;27385;51.096;17.190;2022-07-19T10:23:37;5.80;;;0.70;;
41705;SDS011;27385;51.096;17.190;2022-07-19T10:29:10;4.70;;;0.90;;
41705;SDS011;27385;51.096;17.190;2022-07-19T10:31:59;3.50;;;0.90;;
41705;SDS011;27385;51.096;17.190;2022-07-19T10:37:06;7.20;;;1.20;;
41705;SDS011;27385;51.096;17.190;2022-07-19T10:39:38;4.70;;;0.80;;
41705;SDS011;27385;51.096;17.190;2022-07-19T10:42:11;4.60;;;0.80;;
41705;SDS011;27385;51.096;17.190;2022-07-19T10:47:59;6.40;;;0.90;;
41705;SDS011;27385;51.096;17.190;2022-07-19T10:50:52;2.80;;;0.90;;
41705;SDS011;27385;51.096;17.190;2022-07-19T10:56:32;6.90;;;0.90;;
41705;SDS011;27385;51.096;17.190;2022-07-19T10:59:09;4.60;;;0.70;;
41705;SDS011;27385;51.096;17.190;2022-07-19T11:01:59;3.70;;;0.80;;
41705;SDS011;27385;51.096;17.190;2022-07-19T11:04:33;7.60;;;0.90;;
41705;SDS011;27385;51.096;17.190;2022-07-19T11:07:12;4.90;;;1.00;;
41705;SDS011;27385;51.096;17.190;2022-07-19T11:09:50;6.00;;;0.80;;
41705;SDS011;27385;51.096;17.190;2022-07-19T11:12:28;6.30;;;1.10;;
41705;SDS011;27385;51.096;17.190;2022-07-19T11:15:03;5.00;;;0.80;;
41705;SDS011;27385;51.096;17.190;2022-07-19T11:17:37;3.60;;;0.80;;
41705;SDS011;27385;51.096;17.190;2022-07-19T11:20:10;13.20;;;0.90;;
41705;SDS011;27385;51.096;17.190;2022-07-19T11:22:45;3.40;;;0.60;;
41705;SDS011;27385;51.096;17.190;2022-07-19T11:25:22;4.00;;;0.60;;
41705;SDS011;27385;51.096;17.190;2022-07-19T11:27:55;2.50;;;0.60;;
41705;SDS011;27385;51.096;17.190;2022-07-19T11:30:28;5.40;;;0.70;;
41705;SDS011;27385;51.096;17.190;2022-07-19T11:33:01;3.90;;;0.70;;
41705;SDS011;27385;51.096;17.190;2022-07-19T11:35:34;5.00;;;0.70;;
41705;SDS011;27385;51.096;17.190;2022-07-19T11:38:12;4.50;;;0.70;;
41705;SDS011;27385;51.096;17.190;2022-07-19T11:40:48;5.60;;;0.70;;
41705;SDS011;27385;51.096;17.190;2022-07-19T11:43:31;4.20;;;0.50;;
41705;SDS011;27385;51.096;17.190;2022-07-19T11:46:09;3.40;;;0.60;;
41705;SDS011;27385;51.096;17.190;2022-07-19T11:48:54;3.20;;;0.60;;
41705;SDS011;27385;51.096;17.190;2022-07-19T11:51:33;2.30;;;0.60;;
41705;SDS011;27385;51.096;17.190;2022-07-19T11:54:16;4.40;;;0.70;;
41705;SDS011;27385;51.096;17.190;2022-07-19T11:56:53;2.50;;;0.70;;
41705;SDS011;27385;51.096;17.190;2022-07-19T11:59:32;7.90;;;0.80;;
41705;SDS011;27385;51.096;17.190;2022-07-19T12:02:04;3.30;;;0.70;;
41705;SDS011;27385;51.096;17.190;2022-07-19T12:04:37;3.10;;;0.90;;
41705;SDS011;27385;51.096;17.190;2022-07-19T12:07:10;4.60;;;0.80;;
41705;SDS011;27385;51.096;17.190;2022-07-19T12:09:45;4.80;;;0.60;;
41705;SDS011;27385;51.096;17.190;2022-07-19T12:12:17;4.00;;;0.60;;
41705;SDS011;27385;51.096;17.190;2022-07-19T12:14:49;5.10;;;0.70;;
41705;SDS011;27385;51.096;17.190;2022-07-19T12:17:38;3.00;;;0.70;;
41705;SDS011;27385;51.096;17.190;2022-07-19T12:20:26;6.00;;;1.00;;
41705;SDS011;27385;51.096;17.190;2022-07-19T12:23:11;4.00;;;0.70;;
41705;SDS011;27385;51.096;17.190;2022-07-19T12:25:47;4.20;;;0.60;;
41705;SDS011;27385;51.096;17.190;2022-07-19T12:28:27;8.30;;;0.60;;
41705;SDS011;27385;51.096;17.190;2022-07-19T12:31:06;4.00;;;0.70;;
41705;SDS011;27385;51.096;17.190;2022-07-19T12:33:38;3.20;;;0.70;;
41705;SDS011;27385;51.096;17.190;2022-07-19T12:36:17;3.50;;;0.50;;
41705;SDS011;27385;51.096;17.190;2022-07-19T12:39:15;7.80;;;0.70;;
41705;SDS011;27385;51.096;17.190;2022-07-19T12:41:59;3.00;;;0.60;;
41705;SDS011;27385;51.096;17.190;2022-07-19T12:44:33;6.00;;;0.70;;
41705;SDS011;27385;51.096;17.190;2022-07-19T12:47:06;5.00;;;0.70;;
41705;SDS011;27385;51.096;17.190;2022-07-19T12:49:42;2.70;;;0.60;;
41705;SDS011;27385;51.096;17.190;2022-07-19T12:52:16;4.40;;;0.50;;
41705;SDS011;27385;51.096;17.190;2022-07-19T12:54:50;4.40;;;0.70;;
41705;SDS011;27385;51.096;17.190;2022-07-19T12:57:22;4.20;;;0.70;;
41705;SDS011;27385;51.096;17.190;2022-07-19T12:59:58;4.00;;;0.80;;
41705;SDS011;27385;51.096;17.190;2022-07-19T13:02:32;3.90;;;0.60;;
41705;SDS011;27385;51.096;17.190;2022-07-19T13:05:06;3.90;;;0.60;;
41705;SDS011;27385;51.096;17.190;2022-07-19T13:07:40;9.20;;;0.80;;
41705;SDS011;27385;51.096;17.190;2022-07-19T13:10:13;4.00;;;0.70;;
41705;SDS011;27385;51.096;17.190;2022-07-19T13:12:47;4.40;;;0.70;;
41705;SDS011;27385;51.096;17.190;2022-07-19T13:15:20;3.60;;;0.60;;
41705;SDS011;27385;51.096;17.190;2022-07-19T13:17:54;4.10;;;0.70;;
41705;SDS011;27385;51.096;17.190;2022-07-19T13:20:26;2.80;;;0.60;;
41705;SDS011;27385;51.096;17.190;2022-07-19T13:22:59;4.60;;;0.70;;
41705;SDS011;27385;51.096;17.190;2022-07-19T13:25:32;3.30;;;0.70;;
41705;SDS011;27385;51.096;17.190;2022-07-19T13:28:05;4.50;;;0.70;;
41705;SDS011;27385;51.096;17.190;2022-07-19T13:30:38;4.00;;;0.60;;
41705;SDS011;27385;51.096;17.190;2022-07-19T13:33:11;2.50;;;0.50;;
41705;SDS011;27385;51.096;17.190;2022-07-19T13:38:20;6.10;;;0.70;;
41705;SDS011;27385;51.096;17.190;2022-07-19T13:40:52;3.30;;;0.50;;
41705;SDS011;27385;51.096;17.190;2022-07-19T13:43:24;3.60;;;0.60;;
41705;SDS011;27385;51.096;17.190;2022-07-19T13:45:56;3.40;;;0.80;;
41705;SDS011;27385;51.096;17.190;2022-07-19T13:48:28;2.50;;;0.40;;
41705;SDS011;27385;51.096;17.190;2022-07-19T13:51:01;9.50;;;1.00;;
41705;SDS011;27385;51.096;17.190;2022-07-19T13:53:33;3.10;;;0.60;;
41705;SDS011;27385;51.096;17.190;2022-07-19T13:56:06;3.90;;;0.70;;
41705;SDS011;27385;51.096;17.190;2022-07-19T13:58:41;8.60;;;0.70;;
41705;SDS011;27385;51.096;17.190;2022-07-19T14:01:13;2.80;;;0.60;;
41705;SDS011;27385;51.096;17.190;2022-07-19T14:03:46;4.40;;;0.60;;
41705;SDS011;27385;51.096;17.190;2022-07-19T14:06:18;4.10;;;0.50;;
41705;SDS011;27385;51.096;17.190;2022-07-19T14:08:53;5.50;;;0.50;;
41705;SDS011;27385;51.096;17.190;2022-07-19T14:11:26;5.20;;;0.70;;
41705;SDS011;27385;51.096;17.190;2022-07-19T14:13:59;4.70;;;0.70;;
41705;SDS011;27385;51.096;17.190;2022-07-19T14:20:11;5.00;;;0.70;;
41705;SDS011;27385;51.096;17.190;2022-07-19T14:22:42;5.00;;;0.70;;
41705;SDS011;27385;51.096;17.190;2022-07-19T14:25:15;5.20;;;0.90;;
41705;SDS011;27385;51.096;17.190;2022-07-19T14:27:48;2.90;;;0.60;;
41705;SDS011;27385;51.096;17.190;2022-07-19T14:30:21;5.20;;;0.70;;
41705;SDS011;27385;51.096;17.190;2022-07-19T14:32:54;5.30;;;0.80;;
41705;SDS011;27385;51.096;17.190;2022-07-19T14:35:26;4.30;;;0.70;;
41705;SDS011;27385;51.096;17.190;2022-07-19T14:37:59;3.30;;;0.70;;
41705;SDS011;27385;51.096;17.190;2022-07-19T14:40:32;6.80;;;0.70;;
41705;SDS011;27385;51.096;17.190;2022-07-19T14:43:07;4.50;;;0.70;;
41705;SDS011;27385;51.096;17.190;2022-07-19T14:45:40;4.40;;;0.70;;
41705;SDS011;27385;51.096;17.190;2022-07-19T14:48:13;2.70;;;0.60;;
41705;SDS011;27385;51.096;17.190;2022-07-19T14:50:45;5.20;;;0.80;;
41705;SDS011;27385;51.096;17.190;2022-07-19T14:53:19;6.80;;;0.80;;
41705;SDS011;27385;51.096;17.190;2022-07-19T14:55:53;5.30;;;0.70;;
41705;SDS011;27385;51.096;17.190;2022-07-19T14:58:26;4.20;;;0.70;;
41705;SDS011;27385;51.096;17.190;2022-07-19T15:01:00;7.80;;;1.30;;
41705;SDS011;27385;51.096;17.190;2022-07-19T15:15:37;3.00;;;0.70;;
41705;SDS011;27385;51.096;17.190;2022-07-19T15:18:09;6.40;;;0.70;;
41705;SDS011;27385;51.096;17.190;2022-07-19T15:20:41;2.90;;;0.60;;
41705;SDS011;27385;51.096;17.190;2022-07-19T15:23:13;4.00;;;0.80;;
41705;SDS011;27385;51.096;17.190;2022-07-19T15:25:45;5.10;;;0.70;;
41705;SDS011;27385;51.096;17.190;2022-07-19T15:28:18;4.10;;;0.80;;
41705;SDS011;27385;51.096;17.190;2022-07-19T15:30:50;4.90;;;0.70;;
41705;SDS011;27385;51.096;17.190;2022-07-19T15:33:23;4.60;;;0.70;;